createdAt,value
2018-02-05T00:00:27.209Z,0
2018-02-05T00:01:27.173Z,0
2018-02-05T00:02:26.650Z,0
2018-02-05T00:03:27.106Z,0
2018-02-05T00:04:26.834Z,0
2018-02-05T00:05:27.046Z,0
2018-02-05T00:06:27.254Z,0
2018-02-05T00:07:27.225Z,0
2018-02-05T00:08:26.944Z,0
2018-02-05T00:09:26.667Z,0
2018-02-05T00:10:26.884Z,0
2018-02-05T00:11:26.600Z,0
2018-02-05T00:12:27.123Z,0
2018-02-05T00:13:27.029Z,0
2018-02-05T00:14:26.494Z,0
2018-02-05T00:15:26.960Z,0
2018-02-05T00:16:27.719Z,0
2018-02-05T00:17:26.648Z,0
2018-02-05T00:18:26.608Z,0
2018-02-05T00:19:26.822Z,0
2018-02-05T00:20:26.301Z,0
2018-02-05T00:21:26.507Z,0
2018-02-05T00:22:26.728Z,0
2018-02-05T00:23:26.687Z,0
2018-02-05T00:24:26.519Z,0
2018-02-05T00:25:26.635Z,0
2018-02-05T00:26:26.342Z,0
2018-02-05T00:27:26.319Z,0
2018-02-05T00:28:26.522Z,0
2018-02-05T00:29:26.548Z,0
2018-02-05T00:30:26.259Z,0
2018-02-05T00:31:26.172Z,0
2018-02-05T00:32:26.389Z,0
2018-02-05T00:33:26.355Z,0
2018-02-05T00:34:26.323Z,0
2018-02-05T00:35:26.287Z,0
2018-02-05T00:36:26.262Z,0
2018-02-05T00:37:25.975Z,0
2018-02-05T00:38:26.191Z,0
2018-02-05T00:39:26.154Z,0
2018-02-05T00:40:26.114Z,0
2018-02-05T00:41:25.848Z,0
2018-02-05T00:42:25.805Z,0
2018-02-05T00:43:25.525Z,0
2018-02-05T00:44:25.736Z,0
2018-02-05T00:45:25.958Z,0
2018-02-05T00:46:25.920Z,0
2018-02-05T00:47:25.886Z,0
2018-02-05T00:48:25.601Z,0
2018-02-05T00:49:25.570Z,0
2018-02-05T00:50:25.783Z,0
2018-02-05T00:51:25.497Z,0
2018-02-05T00:52:25.710Z,0
2018-02-05T00:53:25.696Z,0
2018-02-05T00:54:25.646Z,0
2018-02-05T00:55:25.366Z,0
2018-02-05T00:56:25.330Z,0
2018-02-05T00:57:25.297Z,0
2018-02-05T00:58:25.510Z,0
2018-02-05T00:59:25.534Z,0
2018-02-05T01:00:25.497Z,0
2018-02-05T01:01:25.166Z,0
2018-02-05T01:02:25.379Z,0
2018-02-05T01:03:25.340Z,0
2018-02-05T01:04:25.060Z,0
2018-02-05T01:05:25.281Z,0
2018-02-05T01:06:25.245Z,0
2018-02-05T01:07:25.252Z,0
2018-02-05T01:08:25.175Z,0
2018-02-05T01:09:25.147Z,0
2018-02-05T01:10:25.107Z,0
2018-02-05T01:11:25.072Z,0
2018-02-05T01:12:25.038Z,0
2018-02-05T01:13:25.051Z,0
2018-02-05T01:14:24.804Z,0
2018-02-05T01:15:24.936Z,0
2018-02-05T01:16:24.658Z,0
2018-02-05T01:17:24.624Z,0
2018-02-05T01:18:24.831Z,0
2018-02-05T01:19:24.555Z,0
2018-02-05T01:20:24.520Z,0
2018-02-05T01:21:24.734Z,0
2018-02-05T01:22:24.696Z,0
2018-02-05T01:23:24.708Z,0
2018-02-05T01:24:24.632Z,0
2018-02-05T01:25:24.592Z,0
2018-02-05T01:26:24.069Z,0
2018-02-05T01:27:24.038Z,0
2018-02-05T01:28:24.491Z,0
2018-02-05T01:29:24.461Z,0
2018-02-05T01:30:24.430Z,0
2018-02-05T01:31:24.150Z,0
2018-02-05T01:32:24.371Z,0
2018-02-05T01:33:24.319Z,0
2018-02-05T01:34:24.044Z,0
2018-02-05T01:35:23.763Z,0
2018-02-05T01:36:24.077Z,0
2018-02-05T01:37:24.238Z,0
2018-02-05T01:38:24.152Z,0
2018-02-05T01:39:24.115Z,0
2018-02-05T01:40:23.591Z,0
2018-02-05T01:41:24.048Z,0
2018-02-05T01:42:24.020Z,0
2018-02-05T01:43:23.491Z,0
2018-02-05T01:44:23.946Z,0
2018-02-05T01:45:23.666Z,0
2018-02-05T01:46:23.878Z,0
2018-02-05T01:47:23.851Z,0
2018-02-05T01:48:23.317Z,0
2018-02-05T01:49:23.530Z,0
2018-02-05T01:50:23.745Z,0
2018-02-05T01:51:23.706Z,0
2018-02-05T01:52:23.429Z,0
2018-02-05T01:53:23.638Z,0
2018-02-05T01:54:23.355Z,0
2018-02-05T01:55:23.571Z,0
2018-02-05T01:56:23.292Z,0
2018-02-05T01:57:23.263Z,0
2018-02-05T01:58:23.476Z,0
2018-02-05T01:59:23.187Z,0
2018-02-05T02:00:23.410Z,0
2018-02-05T02:01:23.366Z,0
2018-02-05T02:02:23.337Z,0
2018-02-05T02:03:23.299Z,0
2018-02-05T02:04:23.268Z,0
2018-02-05T02:05:23.230Z,0
2018-02-05T02:06:23.190Z,0
2018-02-05T02:07:23.162Z,0
2018-02-05T02:08:22.883Z,0
2018-02-05T02:09:23.097Z,0
2018-02-05T02:10:22.814Z,0
2018-02-05T02:11:22.781Z,0
2018-02-05T02:12:22.997Z,0
2018-02-05T02:13:22.968Z,0
2018-02-05T02:14:22.673Z,0
2018-02-05T02:15:22.894Z,0
2018-02-05T02:16:22.853Z,0
2018-02-05T02:17:22.814Z,0
2018-02-05T02:18:22.793Z,0
2018-02-05T02:19:22.752Z,0
2018-02-05T02:20:22.720Z,0
2018-02-05T02:21:22.680Z,0
2018-02-05T02:22:22.647Z,0
2018-02-05T02:23:22.369Z,0
2018-02-05T02:24:22.578Z,0
2018-02-05T02:25:22.054Z,0
2018-02-05T02:26:22.506Z,0
2018-02-05T02:27:22.295Z,0
2018-02-05T02:28:22.453Z,0
2018-02-05T02:29:22.405Z,0
2018-02-05T02:30:21.901Z,0
2018-02-05T02:31:22.345Z,0
2018-02-05T02:32:22.311Z,0
2018-02-05T02:33:22.292Z,0
2018-02-05T02:34:22.237Z,0
2018-02-05T02:35:22.204Z,0
2018-02-05T02:36:22.226Z,0
2018-02-05T02:37:22.150Z,0
2018-02-05T02:38:21.856Z,0
2018-02-05T02:39:22.086Z,0
2018-02-05T02:40:22.029Z,0
2018-02-05T02:41:21.748Z,0
2018-02-05T02:42:21.716Z,0
2018-02-05T02:43:21.935Z,0
2018-02-05T02:44:21.901Z,0
2018-02-05T02:45:21.615Z,0
2018-02-05T02:46:21.584Z,0
2018-02-05T02:47:21.545Z,0
2018-02-05T02:48:21.757Z,0
2018-02-05T02:49:21.729Z,0
2018-02-05T02:50:21.700Z,0
2018-02-05T02:51:21.660Z,0
2018-02-05T02:52:21.633Z,0
2018-02-05T02:53:21.583Z,0
2018-02-05T02:54:21.305Z,0
2018-02-05T02:55:21.274Z,0
2018-02-05T02:56:21.482Z,0
2018-02-05T02:57:21.446Z,0
2018-02-05T02:58:21.416Z,0
2018-02-05T02:59:21.129Z,0
2018-02-05T03:00:21.356Z,0
2018-02-05T03:01:21.309Z,0
2018-02-05T03:02:21.278Z,0
2018-02-05T03:03:20.995Z,0
2018-02-05T03:04:20.966Z,0
2018-02-05T03:05:20.675Z,0
2018-02-05T03:06:21.137Z,0
2018-02-05T03:07:21.095Z,0
2018-02-05T03:08:21.064Z,0
2018-02-05T03:09:21.035Z,0
2018-02-05T03:10:21.001Z,0
2018-02-05T03:11:20.967Z,0
2018-02-05T03:12:20.924Z,0
2018-02-05T03:13:20.895Z,0
2018-02-05T03:14:20.857Z,0
2018-02-05T03:15:20.823Z,0
2018-02-05T03:16:20.546Z,0
2018-02-05T03:17:20.758Z,0
2018-02-05T03:18:20.723Z,0
2018-02-05T03:19:20.204Z,0
2018-02-05T03:20:20.660Z,0
2018-02-05T03:21:20.401Z,0
2018-02-05T03:22:20.337Z,0
2018-02-05T03:23:20.548Z,0
2018-02-05T03:24:20.270Z,0
2018-02-05T03:25:20.236Z,0
2018-02-05T03:26:20.197Z,0
2018-02-05T03:27:20.168Z,0
2018-02-05T03:28:20.169Z,0
2018-02-05T03:29:20.341Z,0
2018-02-05T03:30:20.314Z,0
2018-02-05T03:31:20.290Z,0
2018-02-05T03:32:20.251Z,0
2018-02-05T03:33:19.955Z,0
2018-02-05T03:34:20.175Z,0
2018-02-05T03:35:20.137Z,0
2018-02-05T03:36:20.099Z,0
2018-02-05T03:37:20.072Z,0
2018-02-05T03:38:20.031Z,0
2018-02-05T03:39:19.996Z,0
2018-02-05T03:40:19.961Z,0
2018-02-05T03:41:19.925Z,0
2018-02-05T03:42:19.647Z,0
2018-02-05T03:43:19.858Z,0
2018-02-05T03:44:19.824Z,0
2018-02-05T03:45:19.543Z,0
2018-02-05T03:46:19.507Z,0
2018-02-05T03:47:19.724Z,0
2018-02-05T03:48:19.686Z,0
2018-02-05T03:49:19.654Z,0
2018-02-05T03:50:19.620Z,0
2018-02-05T03:51:19.334Z,0
2018-02-05T03:52:19.334Z,0
2018-02-05T03:53:19.515Z,0
2018-02-05T03:54:19.480Z,0
2018-02-05T03:55:19.438Z,0
2018-02-05T03:56:19.162Z,0
2018-02-05T03:57:19.221Z,0
2018-02-05T03:58:19.347Z,0
2018-02-05T03:59:19.057Z,0
2018-02-05T04:00:19.315Z,0
2018-02-05T04:01:19.229Z,0
2018-02-05T04:02:19.206Z,0
2018-02-05T04:03:19.167Z,0
2018-02-05T04:04:19.134Z,0
2018-02-05T04:05:18.605Z,0
2018-02-05T04:06:19.069Z,0
2018-02-05T04:07:18.776Z,0
2018-02-05T04:08:18.987Z,0
2018-02-05T04:09:18.955Z,0
2018-02-05T04:10:18.922Z,0
2018-02-05T04:11:18.884Z,0
2018-02-05T04:12:18.606Z,0
2018-02-05T04:13:18.572Z,0
2018-02-05T04:14:18.537Z,0
2018-02-05T04:15:18.746Z,0
2018-02-05T04:16:18.713Z,0
2018-02-05T04:17:18.674Z,0
2018-02-05T04:18:18.397Z,0
2018-02-05T04:19:18.608Z,0
2018-02-05T04:20:18.575Z,0
2018-02-05T04:21:18.537Z,0
2018-02-05T04:22:18.512Z,0
2018-02-05T04:23:18.471Z,0
2018-02-05T04:24:18.426Z,0
2018-02-05T04:25:18.397Z,0
2018-02-05T04:26:18.116Z,0
2018-02-05T04:27:18.325Z,0
2018-02-05T04:28:18.289Z,0
2018-02-05T04:29:18.256Z,0
2018-02-05T04:30:18.224Z,0
2018-02-05T04:31:18.193Z,0
2018-02-05T04:32:17.927Z,0
2018-02-05T04:33:17.631Z,0
2018-02-05T04:34:18.092Z,0
2018-02-05T04:35:17.802Z,0
2018-02-05T04:36:18.019Z,0
2018-02-05T04:37:17.978Z,0
2018-02-05T04:38:17.707Z,0
2018-02-05T04:39:17.910Z,0
2018-02-05T04:40:17.876Z,0
2018-02-05T04:41:17.595Z,0
2018-02-05T04:42:17.561Z,0
2018-02-05T04:43:17.768Z,0
2018-02-05T04:44:17.490Z,0
2018-02-05T04:45:17.204Z,0
2018-02-05T04:46:17.666Z,0
2018-02-05T04:47:17.137Z,0
2018-02-05T04:48:17.597Z,0
2018-02-05T04:49:17.316Z,0
2018-02-05T04:50:17.530Z,0
2018-02-05T04:51:17.491Z,0
2018-02-05T04:52:17.461Z,0
2018-02-05T04:53:17.425Z,0
2018-02-05T04:54:17.387Z,0
2018-02-05T04:55:17.411Z,0
2018-02-05T04:56:17.114Z,0
2018-02-05T04:57:17.288Z,0
2018-02-05T04:58:17.000Z,0
2018-02-05T04:59:17.216Z,0
2018-02-05T05:00:17.186Z,0
2018-02-05T05:01:16.905Z,0
2018-02-05T05:02:17.106Z,0
2018-02-05T05:03:17.128Z,0
2018-02-05T05:04:17.036Z,0
2018-02-05T05:05:17.009Z,0
2018-02-05T05:06:16.965Z,0
2018-02-05T05:07:16.937Z,0
2018-02-05T05:08:16.656Z,0
2018-02-05T05:09:16.619Z,0
2018-02-05T05:10:16.836Z,0
2018-02-05T05:11:16.555Z,0
2018-02-05T05:12:16.770Z,0
2018-02-05T05:13:16.723Z,0
2018-02-05T05:14:16.698Z,0
2018-02-05T05:15:16.656Z,0
2018-02-05T05:16:16.622Z,0
2018-02-05T05:17:16.389Z,0
2018-02-05T05:18:16.309Z,0
2018-02-05T05:19:16.515Z,0
2018-02-05T05:20:16.730Z,0
2018-02-05T05:21:16.197Z,0
2018-02-05T05:22:16.471Z,0
2018-02-05T05:23:16.372Z,0
2018-02-05T05:24:16.338Z,0
2018-02-05T05:25:16.308Z,0
2018-02-05T05:26:16.270Z,0
2018-02-05T05:27:15.990Z,0
2018-02-05T05:28:16.197Z,0
2018-02-05T05:29:16.165Z,0
2018-02-05T05:30:16.137Z,0
2018-02-05T05:31:16.094Z,0
2018-02-05T05:32:15.570Z,0
2018-02-05T05:33:16.028Z,0
2018-02-05T05:34:15.740Z,0
2018-02-05T05:35:15.966Z,0
2018-02-05T05:36:15.920Z,0
2018-02-05T05:37:15.722Z,0
2018-02-05T05:38:15.606Z,0
2018-02-05T05:39:15.819Z,0
2018-02-05T05:40:15.292Z,0
2018-02-05T05:41:15.501Z,0
2018-02-05T05:42:15.216Z,0
2018-02-05T05:43:15.687Z,0
2018-02-05T05:44:14.902Z,0
2018-02-05T05:45:15.612Z,0
2018-02-05T05:46:15.326Z,0
2018-02-05T05:47:15.046Z,0
2018-02-05T05:48:15.257Z,0
2018-02-05T05:49:15.464Z,0
2018-02-05T05:50:15.433Z,0
2018-02-05T05:51:15.397Z,0
2018-02-05T05:52:15.357Z,0
2018-02-05T05:53:15.079Z,0
2018-02-05T05:54:14.797Z,0
2018-02-05T05:55:15.275Z,0
2018-02-05T05:56:14.972Z,0
2018-02-05T05:57:14.937Z,0
2018-02-05T05:58:15.150Z,0
2018-02-05T05:59:15.126Z,0
2018-02-05T06:00:15.082Z,0
2018-02-05T06:01:15.057Z,0
2018-02-05T06:02:15.013Z,0
2018-02-05T06:03:14.743Z,0
2018-02-05T06:04:14.944Z,0
2018-02-05T06:05:14.415Z,0
2018-02-05T06:06:14.873Z,0
2018-02-05T06:07:14.345Z,0
2018-02-05T06:08:14.798Z,0
2018-02-05T06:09:14.273Z,0
2018-02-05T06:10:14.739Z,0
2018-02-05T06:11:14.699Z,0
2018-02-05T06:12:14.414Z,0
2018-02-05T06:13:14.375Z,0
2018-02-05T06:14:14.587Z,0
2018-02-05T06:15:14.063Z,0
2018-02-05T06:16:14.524Z,0
2018-02-05T06:17:14.273Z,0
2018-02-05T06:18:14.448Z,0
2018-02-05T06:19:14.421Z,0
2018-02-05T06:20:14.129Z,0
2018-02-05T06:21:14.346Z,0
2018-02-05T06:22:14.311Z,0
2018-02-05T06:23:14.269Z,0
2018-02-05T06:24:13.995Z,0
2018-02-05T06:25:14.207Z,0
2018-02-05T06:26:13.923Z,4
2018-02-05T06:27:13.889Z,4
2018-02-05T06:28:13.855Z,0
2018-02-05T06:29:14.066Z,4
2018-02-05T06:30:14.078Z,4
2018-02-05T06:31:13.750Z,4
2018-02-05T06:32:13.965Z,4
2018-02-05T06:33:13.673Z,4
2018-02-05T06:34:13.658Z,4
2018-02-05T06:35:13.851Z,4
2018-02-05T06:36:13.577Z,8
2018-02-05T06:37:13.783Z,8
2018-02-05T06:38:13.757Z,12
2018-02-05T06:39:13.469Z,16
2018-02-05T06:40:13.432Z,16
2018-02-05T06:41:13.396Z,20
2018-02-05T06:42:13.365Z,24
2018-02-05T06:43:13.570Z,28
2018-02-05T06:44:13.301Z,32
2018-02-05T06:45:13.500Z,40
2018-02-05T06:46:13.225Z,44
2018-02-05T06:47:13.188Z,52
2018-02-05T06:48:13.398Z,64
2018-02-05T06:49:13.117Z,68
2018-02-05T06:50:12.836Z,80
2018-02-05T06:51:13.102Z,92
2018-02-05T06:52:13.007Z,104
2018-02-05T06:53:12.981Z,120
2018-02-05T06:54:13.232Z,136
2018-02-05T06:55:12.908Z,152
2018-02-05T06:56:12.868Z,172
2018-02-05T06:57:13.079Z,188
2018-02-05T06:58:13.046Z,212
2018-02-05T06:59:13.013Z,236
2018-02-05T07:00:13.048Z,260
2018-02-05T07:01:12.940Z,288
2018-02-05T07:02:12.907Z,316
2018-02-05T07:03:12.874Z,344
2018-02-05T07:04:12.834Z,376
2018-02-05T07:05:12.555Z,412
2018-02-05T07:06:12.273Z,448
2018-02-05T07:07:12.488Z,484
2018-02-05T07:08:12.701Z,520
2018-02-05T07:09:12.415Z,560
2018-02-05T07:10:12.618Z,600
2018-02-05T07:11:12.357Z,640
2018-02-05T07:12:12.557Z,688
2018-02-05T07:13:12.514Z,728
2018-02-05T07:14:12.490Z,776
2018-02-05T07:15:12.277Z,820
2018-02-05T07:16:12.163Z,868
2018-02-05T07:17:12.378Z,920
2018-02-05T07:18:12.091Z,964
2018-02-05T07:19:12.305Z,1016
2018-02-05T07:20:11.883Z,1064
2018-02-05T07:21:11.991Z,1116
2018-02-05T07:22:11.955Z,1164
2018-02-05T07:23:12.169Z,1216
2018-02-05T07:24:11.882Z,1268
2018-02-05T07:25:11.607Z,1316
2018-02-05T07:26:11.832Z,1372
2018-02-05T07:27:12.030Z,1420
2018-02-05T07:28:12.498Z,1468
2018-02-05T07:29:11.957Z,1520
2018-02-05T07:30:11.428Z,1572
2018-02-05T07:31:11.894Z,1620
2018-02-05T07:32:11.862Z,1672
2018-02-05T07:33:11.869Z,1720
2018-02-05T07:34:11.531Z,1768
2018-02-05T07:35:11.518Z,1820
2018-02-05T07:36:11.711Z,1872
2018-02-05T07:37:11.436Z,1916
2018-02-05T07:38:11.150Z,1960
2018-02-05T07:39:11.663Z,2012
2018-02-05T07:40:11.327Z,2060
2018-02-05T07:41:11.537Z,2104
2018-02-05T07:42:11.255Z,2148
2018-02-05T07:43:11.218Z,2192
2018-02-05T07:44:11.187Z,2236
2018-02-05T07:45:11.146Z,2284
2018-02-05T07:46:11.360Z,2324
2018-02-05T07:47:11.326Z,2368
2018-02-05T07:48:11.038Z,2408
2018-02-05T07:49:11.267Z,2456
2018-02-05T07:50:10.972Z,2496
2018-02-05T07:51:10.943Z,2540
2018-02-05T07:52:10.909Z,2580
2018-02-05T07:53:11.119Z,2620
2018-02-05T07:54:10.834Z,2652
2018-02-05T07:55:11.050Z,2692
2018-02-05T07:56:10.917Z,2732
2018-02-05T07:57:10.739Z,2768
2018-02-05T07:58:10.697Z,2800
2018-02-05T07:59:10.912Z,2836
2018-02-05T08:00:10.869Z,2876
2018-02-05T08:01:10.342Z,2908
2018-02-05T08:02:10.602Z,2944
2018-02-05T08:03:10.529Z,2976
2018-02-05T08:04:10.489Z,3012
2018-02-05T08:05:10.465Z,3044
2018-02-05T08:06:10.428Z,3084
2018-02-05T08:07:10.784Z,3116
2018-02-05T08:08:10.678Z,3144
2018-02-05T08:09:10.316Z,3180
2018-02-05T08:10:10.287Z,3212
2018-02-05T08:11:10.256Z,3244
2018-02-05T08:12:10.215Z,3268
2018-02-05T08:13:10.181Z,3296
2018-02-05T08:14:10.387Z,3332
2018-02-05T08:15:11.491Z,3360
2018-02-05T08:16:10.591Z,3384
2018-02-05T08:17:10.039Z,3404
2018-02-05T08:18:10.562Z,3428
2018-02-05T08:19:11.011Z,3460
2018-02-05T08:20:09.858Z,3484
2018-02-05T08:21:09.911Z,3520
2018-02-05T08:22:10.118Z,3544
2018-02-05T08:23:09.839Z,3560
2018-02-05T08:24:10.322Z,3580
2018-02-05T08:25:11.860Z,3600
2018-02-05T08:26:10.160Z,3620
2018-02-05T08:27:09.947Z,3648
2018-02-05T08:28:09.663Z,3668
2018-02-05T08:29:09.876Z,3676
2018-02-05T08:30:09.598Z,3700
2018-02-05T08:31:09.561Z,3732
2018-02-05T08:32:09.614Z,3756
2018-02-05T08:33:09.738Z,3768
2018-02-05T08:34:09.209Z,3804
2018-02-05T08:35:09.676Z,3820
2018-02-05T08:36:09.386Z,3844
2018-02-05T08:37:09.597Z,3860
2018-02-05T08:38:09.563Z,3876
2018-02-05T08:39:09.283Z,3888
2018-02-05T08:40:09.252Z,3908
2018-02-05T08:41:08.995Z,3932
2018-02-05T08:42:09.427Z,3956
2018-02-05T08:43:09.395Z,3980
2018-02-05T08:44:09.179Z,4012
2018-02-05T08:45:09.323Z,4028
2018-02-05T08:46:08.806Z,4052
2018-02-05T08:47:08.928Z,4072
2018-02-05T08:48:09.226Z,4084
2018-02-05T08:49:09.189Z,4108
2018-02-05T08:50:09.157Z,4128
2018-02-05T08:51:08.880Z,4136
2018-02-05T08:52:08.847Z,4160
2018-02-05T08:53:08.814Z,4172
2018-02-05T08:54:08.529Z,4208
2018-02-05T08:55:08.994Z,4232
2018-02-05T08:56:08.705Z,4244
2018-02-05T08:57:08.920Z,4264
2018-02-05T08:58:08.883Z,4272
2018-02-05T08:59:08.858Z,4280
2018-02-05T09:00:08.830Z,4300
2018-02-05T09:01:08.789Z,4348
2018-02-05T09:02:08.752Z,4388
2018-02-05T09:03:08.477Z,4408
2018-02-05T09:04:08.190Z,4432
2018-02-05T09:05:08.662Z,4464
2018-02-05T09:06:08.522Z,4508
2018-02-05T09:07:08.342Z,4520
2018-02-05T09:08:08.552Z,4560
2018-02-05T09:09:08.520Z,4572
2018-02-05T09:10:08.584Z,4588
2018-02-05T09:11:08.449Z,4624
2018-02-05T09:12:08.432Z,4612
2018-02-05T09:13:08.386Z,4620
2018-02-05T09:14:08.351Z,4636
2018-02-05T09:15:08.081Z,4700
2018-02-05T09:16:08.285Z,4728
2018-02-05T09:17:08.007Z,4740
2018-02-05T09:18:07.974Z,4756
2018-02-05T09:19:07.944Z,4764
2018-02-05T09:20:07.960Z,4808
2018-02-05T09:21:07.869Z,4832
2018-02-05T09:22:07.845Z,4856
2018-02-05T09:23:08.050Z,4876
2018-02-05T09:24:08.019Z,4880
2018-02-05T09:25:07.961Z,4900
2018-02-05T09:26:08.168Z,4940
2018-02-05T09:27:07.552Z,4936
2018-02-05T09:28:07.711Z,4916
2018-02-05T09:29:07.901Z,4932
2018-02-05T09:30:07.551Z,4932
2018-02-05T09:31:07.869Z,4940
2018-02-05T09:32:08.281Z,4952
2018-02-05T09:33:07.477Z,4952
2018-02-05T09:34:07.443Z,4964
2018-02-05T09:35:07.167Z,4956
2018-02-05T09:36:07.372Z,4976
2018-02-05T09:37:07.589Z,5004
2018-02-05T09:38:07.309Z,5004
2018-02-05T09:39:07.285Z,5048
2018-02-05T09:40:07.368Z,5072
2018-02-05T09:41:07.466Z,5068
2018-02-05T09:42:07.178Z,5100
2018-02-05T09:43:07.391Z,5112
2018-02-05T09:44:07.114Z,5132
2018-02-05T09:45:07.090Z,5172
2018-02-05T09:46:07.295Z,5248
2018-02-05T09:47:07.283Z,5236
2018-02-05T09:48:06.980Z,5272
2018-02-05T09:49:06.946Z,5376
2018-02-05T09:50:07.170Z,5456
2018-02-05T09:51:06.885Z,5472
2018-02-05T09:52:07.102Z,5552
2018-02-05T09:53:07.068Z,5396
2018-02-05T09:54:07.065Z,5472
2018-02-05T09:55:07.002Z,5452
2018-02-05T09:56:06.968Z,5432
2018-02-05T09:57:06.934Z,5488
2018-02-05T09:58:07.249Z,5468
2018-02-05T09:59:07.116Z,5432
2018-02-05T10:00:07.533Z,5768
2018-02-05T10:01:06.621Z,5800
2018-02-05T10:02:06.576Z,5732
2018-02-05T10:03:07.276Z,5712
2018-02-05T10:04:06.898Z,6004
2018-02-05T10:05:06.431Z,6372
2018-02-05T10:06:06.493Z,6656
2018-02-05T10:07:06.612Z,6676
2018-02-05T10:08:06.579Z,7092
2018-02-05T10:09:06.558Z,7100
2018-02-05T10:10:05.774Z,6928
2018-02-05T10:11:06.250Z,8692
2018-02-05T10:12:06.462Z,8160
2018-02-05T10:13:06.427Z,6460
2018-02-05T10:14:06.141Z,6120
2018-02-05T10:15:06.109Z,6680
2018-02-05T10:16:06.338Z,8112
2018-02-05T10:17:06.519Z,8752
2018-02-05T10:18:06.294Z,7588
2018-02-05T10:19:05.981Z,6376
2018-02-05T10:20:05.724Z,6236
2018-02-05T10:21:06.168Z,6364
2018-02-05T10:22:06.138Z,6556
2018-02-05T10:23:05.865Z,5948
2018-02-05T10:24:06.068Z,5864
2018-02-05T10:25:06.036Z,5832
2018-02-05T10:26:05.514Z,5856
2018-02-05T10:27:06.391Z,5764
2018-02-05T10:28:05.696Z,5732
2018-02-05T10:29:05.912Z,5780
2018-02-05T10:30:05.637Z,5768
2018-02-05T10:31:05.605Z,5732
2018-02-05T10:32:05.617Z,5740
2018-02-05T10:33:05.784Z,5744
2018-02-05T10:34:05.512Z,5724
2018-02-05T10:35:05.478Z,5712
2018-02-05T10:36:05.203Z,5712
2018-02-05T10:37:05.414Z,5740
2018-02-05T10:38:05.627Z,5728
2018-02-05T10:39:05.352Z,5740
2018-02-05T10:40:05.074Z,5672
2018-02-05T10:41:05.537Z,5736
2018-02-05T10:42:05.260Z,5720
2018-02-05T10:43:05.486Z,5748
2018-02-05T10:44:05.447Z,5780
2018-02-05T10:45:05.169Z,5852
2018-02-05T10:46:04.885Z,5892
2018-02-05T10:47:05.103Z,5812
2018-02-05T10:48:05.366Z,5828
2018-02-05T10:49:05.356Z,5788
2018-02-05T10:50:05.008Z,5832
2018-02-05T10:51:05.075Z,5912
2018-02-05T10:52:05.191Z,5980
2018-02-05T10:53:05.174Z,6048
2018-02-05T10:54:04.880Z,6104
2018-02-05T10:55:05.103Z,6744
2018-02-05T10:56:05.192Z,7444
2018-02-05T10:57:05.047Z,8608
2018-02-05T10:58:04.758Z,8512
2018-02-05T10:59:04.728Z,8176
2018-02-05T11:00:04.946Z,8832
2018-02-05T11:01:04.670Z,10296
2018-02-05T11:02:04.686Z,9352
2018-02-05T11:03:04.599Z,7512
2018-02-05T11:04:04.821Z,7156
2018-02-05T11:05:04.540Z,7088
2018-02-05T11:06:04.759Z,7080
2018-02-05T11:07:04.235Z,7180
2018-02-05T11:08:04.451Z,7564
2018-02-05T11:09:04.669Z,10132
2018-02-05T11:10:04.435Z,11208
2018-02-05T11:11:04.611Z,9760
2018-02-05T11:12:04.572Z,8536
2018-02-05T11:13:04.298Z,7884
2018-02-05T11:14:04.515Z,9304
2018-02-05T11:15:04.488Z,9636
2018-02-05T11:16:03.969Z,6796
2018-02-05T11:17:04.472Z,6192
2018-02-05T11:18:04.147Z,6376
2018-02-05T11:19:04.360Z,6540
2018-02-05T11:20:04.328Z,6748
2018-02-05T11:21:04.300Z,7104
2018-02-05T11:22:04.030Z,7356
2018-02-05T11:23:04.405Z,8576
2018-02-05T11:24:03.960Z,10128
2018-02-05T11:25:03.935Z,9304
2018-02-05T11:26:04.148Z,8536
2018-02-05T11:27:04.119Z,7816
2018-02-05T11:28:04.121Z,8104
2018-02-05T11:29:03.810Z,8408
2018-02-05T11:30:04.024Z,8868
2018-02-05T11:31:04.002Z,9020
2018-02-05T11:32:03.971Z,9716
2018-02-05T11:33:03.952Z,11352
2018-02-05T11:34:03.659Z,12312
2018-02-05T11:35:03.635Z,11372
2018-02-05T11:36:03.846Z,9732
2018-02-05T11:37:03.819Z,9324
2018-02-05T11:38:03.780Z,10316
2018-02-05T11:39:03.751Z,10124
2018-02-05T11:40:03.475Z,9840
2018-02-05T11:41:03.455Z,11168
2018-02-05T11:42:03.520Z,10348
2018-02-05T11:43:03.145Z,8768
2018-02-05T11:44:03.367Z,9164
2018-02-05T11:45:03.332Z,10404
2018-02-05T11:46:03.303Z,9644
2018-02-05T11:47:03.340Z,9964
2018-02-05T11:48:03.246Z,9984
2018-02-05T11:49:03.458Z,10900
2018-02-05T11:50:03.179Z,9552
2018-02-05T11:51:03.667Z,8872
2018-02-05T11:52:03.376Z,8284
2018-02-05T11:53:03.333Z,7552
2018-02-05T11:54:03.061Z,7204
2018-02-05T11:55:02.781Z,7556
2018-02-05T11:56:02.999Z,8532
2018-02-05T11:57:02.969Z,9756
2018-02-05T11:58:03.189Z,8464
2018-02-05T11:59:02.911Z,7476
2018-02-05T12:00:02.881Z,7812
2018-02-05T12:01:03.107Z,8728
2018-02-05T12:02:02.821Z,8432
2018-02-05T12:03:03.041Z,8108
2018-02-05T12:04:02.764Z,8036
2018-02-05T12:05:02.980Z,7608
2018-02-05T12:06:02.946Z,7664
2018-02-05T12:07:02.922Z,7904
2018-02-05T12:08:02.886Z,7644
2018-02-05T12:09:03.024Z,8392
2018-02-05T12:10:02.825Z,8856
2018-02-05T12:11:02.724Z,9028
2018-02-05T12:12:03.153Z,7828
2018-02-05T12:13:02.744Z,8024
2018-02-05T12:14:02.480Z,7288
2018-02-05T12:15:02.685Z,6980
2018-02-05T12:16:02.658Z,6992
2018-02-05T12:17:02.653Z,6916
2018-02-05T12:18:02.540Z,7296
2018-02-05T12:19:02.114Z,7436
2018-02-05T12:20:02.289Z,7496
2018-02-05T12:21:02.256Z,7912
2018-02-05T12:22:02.467Z,7956
2018-02-05T12:23:02.192Z,7752
2018-02-05T12:24:02.430Z,7852
2018-02-05T12:25:02.134Z,7256
2018-02-05T12:26:02.099Z,6992
2018-02-05T12:27:02.371Z,7372
2018-02-05T12:28:02.285Z,7672
2018-02-05T12:29:02.260Z,7068
2018-02-05T12:30:02.234Z,6796
2018-02-05T12:31:02.211Z,6920
2018-02-05T12:32:01.925Z,6760
2018-02-05T12:33:02.143Z,6572
2018-02-05T12:34:02.107Z,6600
2018-02-05T12:35:02.119Z,6612
2018-02-05T12:36:01.805Z,6648
2018-02-05T12:37:02.018Z,6632
2018-02-05T12:38:02.076Z,6664
2018-02-05T12:39:01.954Z,6648
2018-02-05T12:40:01.934Z,6564
2018-02-05T12:41:01.896Z,6560
2018-02-05T12:42:01.619Z,6608
2018-02-05T12:43:01.591Z,6440
2018-02-05T12:44:01.806Z,6720
2018-02-05T12:45:01.530Z,6944
2018-02-05T12:46:01.749Z,6864
2018-02-05T12:47:01.716Z,6800
2018-02-05T12:48:01.440Z,6580
2018-02-05T12:49:01.434Z,6832
2018-02-05T12:50:01.632Z,7012
2018-02-05T12:51:01.352Z,7096
2018-02-05T12:52:01.571Z,7364
2018-02-05T12:53:01.588Z,7372
2018-02-05T12:54:01.266Z,7960
2018-02-05T12:55:01.081Z,9388
2018-02-05T12:56:01.206Z,9588
2018-02-05T12:57:01.418Z,9360
2018-02-05T12:58:01.382Z,8884
2018-02-05T12:59:01.110Z,7672
2018-02-05T13:00:01.330Z,6992
2018-02-05T13:01:01.305Z,7436
2018-02-05T13:02:01.273Z,6972
2018-02-05T13:03:00.744Z,6504
2018-02-05T13:04:00.961Z,6904
2018-02-05T13:05:00.689Z,7092
2018-02-05T13:06:01.193Z,7228
2018-02-05T13:07:01.118Z,7292
2018-02-05T13:08:01.088Z,7320
2018-02-05T13:09:01.052Z,7644
2018-02-05T13:10:01.034Z,8684
2018-02-05T13:11:00.750Z,9252
2018-02-05T13:12:00.721Z,9780
2018-02-05T13:13:00.697Z,9072
2018-02-05T13:14:00.676Z,7404
2018-02-05T13:15:00.878Z,6992
2018-02-05T13:16:00.354Z,6804
2018-02-05T13:17:00.818Z,7400
2018-02-05T13:18:00.783Z,7944
2018-02-05T13:19:00.506Z,7152
2018-02-05T13:20:00.479Z,6948
2018-02-05T13:21:00.448Z,6864
2018-02-05T13:22:00.455Z,6832
2018-02-05T13:23:00.634Z,6724
2018-02-05T13:24:00.607Z,6400
2018-02-05T13:25:00.577Z,6572
2018-02-05T13:26:00.553Z,6452
2018-02-05T13:27:00.515Z,6388
2018-02-05T13:28:00.216Z,6380
2018-02-05T13:29:00.464Z,6400
2018-02-05T13:30:00.424Z,6008
2018-02-05T13:31:00.397Z,6200
2018-02-05T13:32:00.118Z,6108
2018-02-05T13:33:00.332Z,5964
2018-02-05T13:34:00.062Z,5856
2018-02-05T13:35:00.276Z,6196
2018-02-05T13:36:00.003Z,6196
2018-02-05T13:37:00.214Z,6176
2018-02-05T13:38:00.189Z,6140
2018-02-05T13:38:59.666Z,6096
2018-02-05T13:39:59.944Z,6088
2018-02-05T13:40:59.847Z,6060
2018-02-05T13:42:00.063Z,6056
2018-02-05T13:43:00.340Z,5996
2018-02-05T13:44:00.012Z,5972
2018-02-05T13:44:59.970Z,6024
2018-02-05T13:45:59.468Z,6088
2018-02-05T13:46:59.916Z,6060
2018-02-05T13:47:59.640Z,6016
2018-02-05T13:48:59.621Z,6008
2018-02-05T13:49:59.823Z,5984
2018-02-05T13:50:59.795Z,5928
2018-02-05T13:51:59.524Z,5916
2018-02-05T13:53:00.155Z,5940
2018-02-05T13:53:59.458Z,5936
2018-02-05T13:54:59.675Z,5992
2018-02-05T13:55:59.408Z,5976
2018-02-05T13:56:59.367Z,5960
2018-02-05T13:57:59.339Z,5944
2018-02-05T13:58:59.553Z,5920